Time;durP1;ratioP1;P1;durP2;ratioP2;P2;SDS_P1;SDS_P2;PMS_P1;PMS_P2;Temp;Humidity;BMP_temperature;BMP_pressure;BME280_temperature;BME280_humidity;BME280_pressure;Samples;Min_cycle;Max_cycle;Signal;HPM_P1;HPM_P2
2022/01/03 00:01:58;;;;;;;2.63;1.80;;;8.80;99.90;;;;;;5020740;28;20224;-70
2022/01/03 00:04:24;;;;;;;3.37;1.70;;;8.70;99.90;;;;;;5024889;28;20632;-70
2022/01/03 00:06:51;;;;;;;2.70;1.30;;;8.70;99.90;;;;;;5042528;28;20196;-70
2022/01/03 00:09:17;;;;;;;3.57;1.70;;;8.60;99.90;;;;;;5009490;28;20238;-70
2022/01/03 00:11:45;;;;;;;2.37;1.50;;;8.70;99.90;;;;;;5030728;28;20981;-70
2022/01/03 00:14:11;;;;;;;1.93;1.20;;;8.70;99.90;;;;;;5021985;28;20187;-70
2022/01/03 00:16:37;;;;;;;2.67;1.47;;;8.70;99.90;;;;;;5038335;28;20184;-70
2022/01/03 00:19:03;;;;;;;2.60;1.03;;;8.70;99.90;;;;;;5026745;28;20202;-70
2022/01/03 00:21:45;;;;;;;1.80;1.10;;;8.70;99.90;;;;;;5025986;28;20194;-70
2022/01/03 00:24:13;;;;;;;4.57;1.30;;;8.70;99.90;;;;;;5042617;28;20183;-70
2022/01/03 00:26:41;;;;;;;2.47;1.37;;;8.70;99.90;;;;;;5021597;28;20225;-70
2022/01/03 00:29:20;;;;;;;6.43;1.43;;;8.70;99.90;;;;;;5039725;28;20254;-70
2022/01/03 00:31:47;;;;;;;3.50;1.40;;;8.70;99.90;;;;;;5025487;28;20703;-70
2022/01/03 00:34:15;;;;;;;4.23;1.40;;;8.70;99.90;;;;;;5029859;28;20223;-70
2022/01/03 00:36:46;;;;;;;5.37;1.23;;;8.60;99.90;;;;;;5020819;28;20192;-68
2022/01/03 00:39:13;;;;;;;2.07;1.30;;;8.70;99.90;;;;;;5040345;28;20330;-70
2022/01/03 00:41:45;;;;;;;4.07;1.37;;;8.70;99.90;;;;;;5005388;28;20207;-71
2022/01/03 00:44:12;;;;;;;2.13;1.30;;;8.70;99.90;;;;;;5037588;28;20183;-70
2022/01/03 00:46:39;;;;;;;2.40;1.20;;;8.60;99.90;;;;;;5019582;28;21105;-71
2022/01/03 00:49:06;;;;;;;2.03;1.43;;;8.60;99.90;;;;;;5021261;28;20338;-69
2022/01/03 00:51:35;;;;;;;5.37;1.50;;;8.60;99.90;;;;;;5010920;28;20196;-68
2022/01/03 00:54:02;;;;;;;3.97;1.47;;;8.60;99.90;;;;;;5005336;28;20199;-69
2022/01/03 00:56:44;;;;;;;2.90;1.37;;;8.60;99.90;;;;;;5030489;28;20187;-70
2022/01/03 00:59:30;;;;;;;1.30;1.10;;;8.60;99.90;;;;;;5018618;28;20182;-69
2022/01/03 01:02:01;;;;;;;1.83;1.20;;;8.60;99.90;;;;;;5008630;28;20653;-69
2022/01/03 01:04:28;;;;;;;2.20;1.27;;;8.50;99.90;;;;;;5040853;28;20191;-70
2022/01/03 01:06:57;;;;;;;2.43;1.40;;;8.50;99.90;;;;;;5021846;28;20191;-68
2022/01/03 01:09:28;;;;;;;2.53;1.70;;;8.50;99.90;;;;;;5025892;28;20750;-66
2022/01/03 01:11:59;;;;;;;1.77;1.30;;;8.60;99.90;;;;;;5038520;28;20180;-67
2022/01/03 01:14:28;;;;;;;9.47;1.50;;;8.60;99.90;;;;;;5057543;28;20206;-67
2022/01/03 01:16:55;;;;;;;6.83;1.57;;;8.60;99.90;;;;;;5021645;28;20198;-69
2022/01/03 01:19:23;;;;;;;3.00;1.50;;;8.50;99.90;;;;;;5033645;28;20856;-69
2022/01/03 01:21:51;;;;;;;2.37;1.60;;;8.50;99.90;;;;;;5056870;28;20675;-69
2022/01/03 01:24:22;;;;;;;2.57;1.37;;;8.40;99.90;;;;;;5029818;28;20198;-69
2022/01/03 01:29:39;;;;;;;5.03;1.60;;;8.50;99.90;;;;;;5025989;28;20220;-69
2022/01/03 01:32:12;;;;;;;4.43;1.50;;;8.40;99.90;;;;;;5053498;28;20640;-69
2022/01/03 01:34:46;;;;;;;2.43;1.00;;;8.40;99.90;;;;;;5008881;28;20291;-69
2022/01/03 01:37:18;;;;;;;3.43;1.40;;;8.40;99.90;;;;;;5024694;28;20289;-69
2022/01/03 01:39:49;;;;;;;1.13;1.00;;;8.40;99.90;;;;;;5022893;28;20230;-69
2022/01/03 01:42:18;;;;;;;1.60;1.27;;;8.30;99.90;;;;;;5046847;28;20285;-69
2022/01/03 01:44:50;;;;;;;1.90;1.47;;;8.40;99.90;;;;;;5012962;28;20187;-69
2022/01/03 01:47:18;;;;;;;1.80;1.10;;;8.30;99.90;;;;;;5022712;28;20227;-69
2022/01/03 01:49:48;;;;;;;1.60;1.23;;;8.30;99.90;;;;;;5046124;28;20291;-71
2022/01/03 01:52:22;;;;;;;2.50;1.67;;;8.30;99.90;;;;;;5008282;28;20197;-71
2022/01/03 01:55:04;;;;;;;2.60;1.37;;;8.40;99.90;;;;;;5047050;28;20198;-71
2022/01/03 01:58:02;;;;;;;2.03;1.20;;;8.40;99.90;;;;;;5019953;28;20643;-71
2022/01/03 02:00:29;;;;;;;1.90;1.20;;;8.40;99.90;;;;;;5044064;28;20207;-71
2022/01/03 02:03:22;;;;;;;2.43;1.37;;;8.40;99.90;;;;;;5021900;28;20252;-71
2022/01/03 02:06:11;;;;;;;3.90;1.50;;;8.50;99.90;;;;;;5038325;28;20747;-71
2022/01/03 02:09:04;;;;;;;2.20;1.27;;;8.50;99.90;;;;;;5026102;28;20223;-71
2022/01/03 02:11:52;;;;;;;3.60;1.50;;;8.60;99.90;;;;;;5036487;28;20195;-71
2022/01/03 02:14:21;;;;;;;2.20;1.27;;;8.60;99.90;;;;;;5042308;28;20211;-70
2022/01/03 02:16:49;;;;;;;1.30;1.00;;;8.60;99.90;;;;;;5041743;28;20191;-71
2022/01/03 02:19:16;;;;;;;1.90;1.10;;;8.70;99.90;;;;;;5026064;28;20698;-70
2022/01/03 02:21:43;;;;;;;3.13;1.17;;;8.70;99.90;;;;;;5032462;28;20187;-71
2022/01/03 02:24:09;;;;;;;4.60;1.30;;;8.80;99.90;;;;;;5045826;28;20195;-70
2022/01/03 02:26:36;;;;;;;3.97;1.20;;;8.80;99.90;;;;;;5044241;28;20187;-71
2022/01/03 02:29:04;;;;;;;2.97;1.40;;;8.80;99.90;;;;;;5033817;28;20293;-71
2022/01/03 02:31:32;;;;;;;2.90;1.50;;;8.80;99.90;;;;;;5038795;28;20914;-68
2022/01/03 02:34:03;;;;;;;2.47;1.20;;;8.80;99.90;;;;;;5039478;28;20191;-66
2022/01/03 02:36:34;;;;;;;1.63;1.13;;;8.80;99.90;;;;;;5012299;28;20867;-67
2022/01/03 02:39:01;;;;;;;2.57;1.23;;;8.70;99.90;;;;;;5041026;28;20291;-67
2022/01/03 02:41:28;;;;;;;1.70;1.07;;;8.70;99.90;;;;;;5038088;28;20540;-66
2022/01/03 02:43:54;;;;;;;3.77;1.20;;;8.70;99.90;;;;;;5018814;28;20667;-67
2022/01/03 02:46:21;;;;;;;3.70;1.23;;;8.60;99.90;;;;;;5048560;28;20206;-67
2022/01/03 02:48:47;;;;;;;5.03;1.47;;;8.50;99.90;;;;;;5056782;28;20218;-67
2022/01/03 02:51:14;;;;;;;3.63;1.30;;;8.50;99.90;;;;;;5026373;28;20270;-67
2022/01/03 02:53:41;;;;;;;4.23;1.30;;;8.50;99.90;;;;;;5020267;28;20187;-67
2022/01/03 02:56:08;;;;;;;4.23;1.20;;;8.40;99.90;;;;;;5035752;28;20198;-67
2022/01/03 02:58:34;;;;;;;2.97;1.03;;;8.40;99.90;;;;;;5028401;28;20195;-67
2022/01/03 03:01:00;;;;;;;1.87;1.20;;;8.40;99.90;;;;;;5050559;28;20719;-66
2022/01/03 03:03:27;;;;;;;4.07;1.40;;;8.40;99.90;;;;;;5016820;28;20216;-70
2022/01/03 03:05:53;;;;;;;4.57;1.50;;;8.30;99.90;;;;;;5046447;28;20200;-70
2022/01/03 03:08:20;;;;;;;3.00;1.23;;;8.40;99.90;;;;;;5043880;28;20857;-70
2022/01/03 03:10:46;;;;;;;2.97;1.50;;;8.40;99.90;;;;;;5021496;28;20187;-70
2022/01/03 03:13:13;;;;;;;7.27;1.30;;;8.40;99.90;;;;;;5026911;28;20275;-70
2022/01/03 03:15:39;;;;;;;3.47;1.47;;;8.40;99.90;;;;;;5033704;28;20199;-70
2022/01/03 03:18:05;;;;;;;3.43;1.30;;;8.40;99.90;;;;;;5022836;28;20688;-70
2022/01/03 03:20:33;;;;;;;4.33;1.40;;;8.30;99.90;;;;;;5029138;28;20187;-70
2022/01/03 03:23:01;;;;;;;3.17;1.17;;;8.30;99.90;;;;;;5005901;28;20259;-70
2022/01/03 03:25:34;;;;;;;2.40;1.20;;;8.30;99.90;;;;;;5044621;28;20648;-70
2022/01/03 03:28:09;;;;;;;2.73;1.40;;;8.20;99.90;;;;;;5039872;28;20325;-70
2022/01/03 03:30:43;;;;;;;1.67;1.20;;;8.10;99.90;;;;;;5024351;28;20901;-70
2022/01/03 03:33:20;;;;;;;2.87;1.50;;;8.10;99.90;;;;;;5034733;28;20181;-69
2022/01/03 03:35:48;;;;;;;2.47;1.30;;;8.10;99.90;;;;;;5044396;28;20662;-69
2022/01/03 03:38:14;;;;;;;5.73;1.33;;;8.10;99.90;;;;;;5045183;28;20191;-70
2022/01/03 03:40:45;;;;;;;2.53;1.27;;;8.10;99.90;;;;;;5023198;28;20194;-70
2022/01/03 03:43:13;;;;;;;4.43;1.37;;;8.20;99.90;;;;;;5031722;28;20183;-70
2022/01/03 03:45:40;;;;;;;4.17;1.27;;;8.20;99.90;;;;;;5007992;28;20279;-70
2022/01/03 03:48:07;;;;;;;3.50;1.23;;;8.20;99.90;;;;;;5040105;28;20270;-70
2022/01/03 03:50:33;;;;;;;2.47;1.20;;;8.20;99.90;;;;;;5050084;28;20247;-70
2022/01/03 03:53:00;;;;;;;3.60;1.30;;;8.10;99.90;;;;;;5054924;28;20213;-68
2022/01/03 03:55:27;;;;;;;2.00;1.27;;;8.10;99.90;;;;;;5032587;28;20245;-68
2022/01/03 03:57:54;;;;;;;4.57;1.40;;;8.10;99.90;;;;;;5020132;28;20678;-68
2022/01/03 04:00:21;;;;;;;1.87;1.20;;;8.20;99.90;;;;;;5041574;28;20194;-68
2022/01/03 04:02:47;;;;;;;2.60;1.37;;;8.10;99.90;;;;;;5030945;28;20306;-68
2022/01/03 04:05:14;;;;;;;3.37;1.33;;;8.10;99.90;;;;;;5023073;28;20213;-68
2022/01/03 04:07:40;;;;;;;3.30;1.30;;;8.20;99.90;;;;;;5028960;28;20267;-69
2022/01/03 04:10:10;;;;;;;3.17;1.37;;;8.20;99.90;;;;;;5028138;28;20271;-69
2022/01/03 04:12:37;;;;;;;4.53;1.50;;;8.20;99.90;;;;;;5049611;28;20282;-69
2022/01/03 04:15:04;;;;;;;3.13;1.40;;;8.20;99.90;;;;;;5038683;28;20183;-70
2022/01/03 04:17:31;;;;;;;4.40;1.50;;;8.30;99.90;;;;;;5037931;28;20194;-70
2022/01/03 04:19:57;;;;;;;2.70;1.57;;;8.20;99.90;;;;;;5033889;28;20286;-70
2022/01/03 04:22:23;;;;;;;3.10;1.60;;;8.30;99.90;;;;;;5044565;28;20197;-70
2022/01/03 04:24:49;;;;;;;1.60;1.20;;;8.30;99.90;;;;;;5048573;28;20195;-70
2022/01/03 04:27:16;;;;;;;5.67;1.40;;;8.30;99.90;;;;;;5034862;28;20202;-70
2022/01/03 04:29:42;;;;;;;2.87;1.60;;;8.30;99.90;;;;;;5047893;28;20963;-70
2022/01/03 04:32:09;;;;;;;2.70;1.63;;;8.30;99.90;;;;;;5045428;28;20894;-70
2022/01/03 04:34:35;;;;;;;2.67;1.70;;;8.30;99.90;;;;;;5017677;28;20188;-70
2022/01/03 04:37:02;;;;;;;4.43;1.63;;;8.30;99.90;;;;;;5037814;28;20179;-70
2022/01/03 04:39:28;;;;;;;5.00;1.50;;;8.20;99.90;;;;;;5028789;28;20319;-71
2022/01/03 04:41:55;;;;;;;4.87;1.90;;;8.20;99.90;;;;;;5031387;28;20183;-67
2022/01/03 04:44:21;;;;;;;2.70;1.57;;;8.20;99.90;;;;;;5056181;28;20196;-67
2022/01/03 04:46:47;;;;;;;2.17;1.60;;;8.20;99.90;;;;;;5031517;28;20198;-67
2022/01/03 04:49:14;;;;;;;1.60;1.10;;;8.20;99.90;;;;;;5027371;28;20257;-68
2022/01/03 04:51:40;;;;;;;6.20;1.40;;;8.10;99.90;;;;;;5017106;28;20191;-68
2022/01/03 04:54:07;;;;;;;2.63;1.40;;;8.20;99.90;;;;;;5033979;28;20183;-69
2022/01/03 04:56:34;;;;;;;4.37;1.40;;;8.30;99.90;;;;;;5051928;28;20647;-69
2022/01/03 04:59:02;;;;;;;2.20;1.20;;;8.30;99.90;;;;;;5033044;28;20495;-69
2022/01/03 05:01:28;;;;;;;4.10;1.50;;;8.30;99.90;;;;;;5053802;28;20195;-70
2022/01/03 05:03:55;;;;;;;3.93;1.40;;;8.30;99.90;;;;;;5020240;28;20242;-69
2022/01/03 05:06:21;;;;;;;5.83;1.90;;;8.20;99.90;;;;;;5022367;28;20191;-69
2022/01/03 05:08:48;;;;;;;2.90;1.27;;;8.30;99.90;;;;;;5055104;28;20212;-69
2022/01/03 05:11:14;;;;;;;2.00;1.30;;;8.30;99.90;;;;;;5043951;28;20664;-69
2022/01/03 05:13:41;;;;;;;4.93;1.30;;;8.20;99.90;;;;;;5053875;28;20195;-69
2022/01/03 05:16:07;;;;;;;4.07;1.37;;;8.20;99.90;;;;;;5053491;28;20183;-70
2022/01/03 05:18:34;;;;;;;5.30;1.73;;;8.30;99.90;;;;;;5016976;28;20191;-70
2022/01/03 05:21:01;;;;;;;2.73;1.50;;;8.30;99.90;;;;;;5039948;28;20325;-70
2022/01/03 05:23:27;;;;;;;4.77;1.50;;;8.30;99.90;;;;;;5037467;28;20187;-70
2022/01/03 05:25:54;;;;;;;3.50;1.23;;;8.30;99.90;;;;;;5050271;28;20546;-70
2022/01/03 05:28:20;;;;;;;2.03;1.33;;;8.30;99.90;;;;;;5029249;28;20211;-70
2022/01/03 05:30:47;;;;;;;2.70;1.20;;;8.30;99.90;;;;;;5016375;28;20179;-70
2022/01/03 05:33:13;;;;;;;2.47;1.27;;;8.40;99.90;;;;;;5029996;28;20586;-69
2022/01/03 05:35:39;;;;;;;2.07;1.20;;;8.40;99.90;;;;;;5056412;28;20694;-68
2022/01/03 05:38:06;;;;;;;3.77;1.40;;;8.40;99.90;;;;;;5052533;28;20199;-67
2022/01/03 05:40:32;;;;;;;3.03;1.50;;;8.40;99.90;;;;;;5024593;28;20519;-67
2022/01/03 05:42:59;;;;;;;2.03;1.20;;;8.50;99.90;;;;;;5032575;28;20232;-68
2022/01/03 05:45:25;;;;;;;3.90;1.53;;;8.40;99.90;;;;;;5021575;28;20195;-68
2022/01/03 05:47:52;;;;;;;3.60;1.90;;;8.40;99.90;;;;;;5029976;28;20195;-68
2022/01/03 05:50:18;;;;;;;2.50;1.40;;;8.40;99.90;;;;;;5058312;28;20195;-68
2022/01/03 05:52:45;;;;;;;2.83;1.33;;;8.50;99.90;;;;;;5021010;28;20191;-68
2022/01/03 05:55:12;;;;;;;2.27;1.40;;;8.50;99.90;;;;;;5024833;28;20231;-68
2022/01/03 05:57:41;;;;;;;3.77;1.40;;;8.50;99.90;;;;;;5026617;28;20674;-68
2022/01/03 06:00:13;;;;;;;2.40;1.30;;;8.60;99.90;;;;;;5028040;28;21002;-68
2022/01/03 06:02:43;;;;;;;5.07;1.50;;;8.60;99.90;;;;;;5034931;28;20208;-68
2022/01/03 06:05:40;;;;;;;3.13;1.30;;;8.60;99.90;;;;;;5042220;28;20190;-68
2022/01/03 06:07:59;;;;;;;3.33;1.50;;;8.70;99.90;;;;;;5016069;28;20203;-67
2022/01/03 06:10:26;;;;;;;6.13;1.97;;;8.80;99.90;;;;;;5032533;28;20226;-68
2022/01/03 06:12:52;;;;;;;3.67;1.50;;;8.80;99.90;;;;;;5054709;28;20198;-68
2022/01/03 06:15:24;;;;;;;5.57;1.30;;;8.90;99.90;;;;;;5027308;28;20274;-67
2022/01/03 06:17:52;;;;;;;3.30;1.37;;;9.00;99.90;;;;;;5006244;28;20292;-67
2022/01/03 06:20:19;;;;;;;5.10;1.63;;;9.10;99.90;;;;;;5037559;28;20187;-68
2022/01/03 06:22:45;;;;;;;4.23;1.73;;;9.10;99.90;;;;;;5055919;28;20214;-68
2022/01/03 06:25:12;;;;;;;3.73;1.43;;;9.20;99.90;;;;;;5029959;28;20202;-67
2022/01/03 06:27:39;;;;;;;3.67;1.20;;;9.20;99.90;;;;;;5026988;28;20588;-68
2022/01/03 06:30:08;;;;;;;4.47;1.17;;;9.30;99.90;;;;;;5036428;28;20182;-68
2022/01/03 06:32:35;;;;;;;2.33;1.33;;;9.40;99.90;;;;;;5057272;28;20612;-68
2022/01/03 06:35:01;;;;;;;3.40;1.47;;;9.40;99.90;;;;;;5012223;28;20724;-67
2022/01/03 06:37:28;;;;;;;2.10;1.13;;;9.50;99.90;;;;;;5020605;28;20196;-67
2022/01/03 06:39:54;;;;;;;2.30;1.10;;;9.60;99.90;;;;;;5028812;28;20195;-67
2022/01/03 06:42:20;;;;;;;2.80;1.30;;;9.70;99.90;;;;;;5042430;28;20308;-67
2022/01/03 06:44:48;;;;;;;3.27;1.40;;;9.80;99.90;;;;;;5027293;28;20529;-67
2022/01/03 06:47:17;;;;;;;2.87;1.37;;;9.80;99.90;;;;;;5026396;28;20282;-68
2022/01/03 06:49:44;;;;;;;4.57;1.60;;;9.90;99.90;;;;;;5035924;28;20210;-68
2022/01/03 06:52:11;;;;;;;6.30;1.40;;;10.00;99.90;;;;;;5054920;28;20210;-68
2022/01/03 06:54:37;;;;;;;3.03;1.40;;;10.10;99.90;;;;;;5031352;28;20186;-67
2022/01/03 06:57:04;;;;;;;1.83;1.20;;;10.10;99.90;;;;;;5040526;28;20628;-67
2022/01/03 06:59:30;;;;;;;6.10;1.53;;;10.20;99.90;;;;;;5036781;28;20293;-67
2022/01/03 07:01:56;;;;;;;2.23;1.00;;;10.30;99.90;;;;;;5049307;28;20195;-67
2022/01/03 07:04:22;;;;;;;2.90;1.30;;;10.40;99.90;;;;;;5040138;28;20219;-69
2022/01/03 07:06:49;;;;;;;4.37;1.20;;;10.40;99.90;;;;;;5025634;28;20291;-68
2022/01/03 07:09:15;;;;;;;5.13;1.43;;;10.50;99.90;;;;;;5044920;28;20232;-68
2022/01/03 07:11:41;;;;;;;2.73;1.37;;;10.60;99.90;;;;;;5046742;28;20985;-69
2022/01/03 07:19:43;;;;;;;2.37;1.60;;;10.70;99.90;;;;;;5033819;28;20659;-69
2022/01/03 07:22:10;;;;;;;2.60;1.50;;;10.70;99.90;;;;;;5046407;28;20215;-71
2022/01/03 07:24:39;;;;;;;3.67;1.30;;;10.70;99.90;;;;;;5047123;28;20245;-71
2022/01/03 07:27:09;;;;;;;2.70;1.50;;;10.60;99.90;;;;;;5042327;28;20954;-69
2022/01/03 07:29:36;;;;;;;3.33;1.50;;;10.60;99.90;;;;;;5025274;28;20838;-69
2022/01/03 07:32:04;;;;;;;4.17;1.40;;;10.70;99.90;;;;;;5026183;28;20187;-68
2022/01/03 07:34:30;;;;;;;2.03;1.60;;;10.80;99.90;;;;;;5053241;28;20199;-68
2022/01/03 07:36:56;;;;;;;4.13;1.70;;;10.90;99.90;;;;;;5046983;28;20674;-68
2022/01/03 07:39:23;;;;;;;2.43;1.50;;;11.10;99.90;;;;;;5026029;28;20198;-69
2022/01/03 07:41:49;;;;;;;2.60;1.57;;;11.10;99.90;;;;;;5021067;28;20192;-70
2022/01/03 07:44:16;;;;;;;2.87;1.30;;;11.10;99.90;;;;;;5047253;28;20194;-69
2022/01/03 07:46:42;;;;;;;2.20;1.30;;;11.00;99.90;;;;;;5030551;28;20268;-69
2022/01/03 07:49:09;;;;;;;4.00;1.40;;;11.00;99.90;;;;;;5024845;28;20306;-69
2022/01/03 07:51:35;;;;;;;4.97;1.37;;;11.00;99.90;;;;;;5008614;28;20187;-69
2022/01/03 07:54:01;;;;;;;3.43;1.30;;;11.00;99.90;;;;;;5043489;28;20202;-71
2022/01/03 07:56:27;;;;;;;5.00;1.70;;;10.90;99.90;;;;;;5025535;28;20191;-70
2022/01/03 07:58:54;;;;;;;3.03;1.63;;;11.00;99.90;;;;;;5031884;28;20232;-70
2022/01/03 08:01:20;;;;;;;2.83;1.67;;;11.00;99.90;;;;;;5027410;28;20207;-70
2022/01/03 08:03:46;;;;;;;2.87;1.43;;;11.00;99.90;;;;;;5028632;28;20403;-68
2022/01/03 08:06:13;;;;;;;4.50;1.47;;;11.00;99.90;;;;;;5025848;28;20281;-69
2022/01/03 08:08:40;;;;;;;3.50;1.30;;;11.00;99.90;;;;;;5023895;28;20665;-69
2022/01/03 08:11:07;;;;;;;5.47;1.83;;;11.10;99.90;;;;;;5044255;28;20668;-67
2022/01/03 08:13:33;;;;;;;2.77;1.30;;;11.10;99.90;;;;;;5032224;28;20556;-68
2022/01/03 08:15:59;;;;;;;2.17;1.60;;;11.10;99.90;;;;;;5034342;28;20255;-68
2022/01/03 08:18:26;;;;;;;2.50;1.43;;;11.20;99.90;;;;;;5025678;28;20221;-68
2022/01/03 08:20:53;;;;;;;4.27;1.60;;;11.20;99.90;;;;;;5050693;28;20227;-68
2022/01/03 08:23:20;;;;;;;3.83;1.27;;;11.20;99.90;;;;;;5026255;28;20548;-68
2022/01/03 08:25:46;;;;;;;2.53;1.50;;;11.20;99.90;;;;;;5027901;28;20191;-70
2022/01/03 08:28:14;;;;;;;5.93;1.40;;;11.20;99.90;;;;;;5035213;28;20698;-70
2022/01/03 08:30:41;;;;;;;2.47;1.50;;;11.20;99.90;;;;;;5016598;28;20224;-70
2022/01/03 08:33:08;;;;;;;4.93;1.27;;;11.30;99.90;;;;;;5037259;28;20191;-70
2022/01/03 08:35:35;;;;;;;3.83;1.50;;;11.40;99.90;;;;;;5031786;28;20641;-70
2022/01/03 08:38:04;;;;;;;4.40;1.50;;;11.40;99.90;;;;;;5032754;28;20248;-70
2022/01/03 08:40:32;;;;;;;2.27;1.50;;;11.50;99.90;;;;;;5030854;28;20297;-71
2022/01/03 08:43:00;;;;;;;3.57;1.53;;;11.50;99.90;;;;;;5027225;28;20242;-71
2022/01/03 08:45:26;;;;;;;3.90;1.43;;;11.60;99.90;;;;;;5031829;28;20198;-70
2022/01/03 08:47:53;;;;;;;2.80;1.60;;;11.60;99.90;;;;;;5030831;28;20998;-71
2022/01/03 08:50:19;;;;;;;2.40;1.50;;;11.70;99.90;;;;;;5030452;28;20287;-71
2022/01/03 08:52:47;;;;;;;3.67;1.70;;;11.70;99.90;;;;;;5030685;28;20249;-71
2022/01/03 08:55:15;;;;;;;2.53;1.80;;;11.80;99.90;;;;;;5053151;28;20187;-71
2022/01/03 08:57:42;;;;;;;4.03;1.60;;;11.80;99.90;;;;;;5031386;28;20192;-71
2022/01/03 09:00:10;;;;;;;2.53;1.70;;;11.80;99.90;;;;;;5027469;28;20196;-71
2022/01/03 09:02:36;;;;;;;4.97;1.50;;;11.80;99.90;;;;;;5047699;28;20211;-71
2022/01/03 09:05:04;;;;;;;5.93;1.60;;;11.90;99.90;;;;;;5024415;28;20192;-71
2022/01/03 09:07:30;;;;;;;2.50;1.60;;;11.90;99.90;;;;;;5031938;28;20194;-71
2022/01/03 09:09:57;;;;;;;3.70;1.57;;;12.00;99.90;;;;;;5024752;28;20208;-71
2022/01/03 09:12:23;;;;;;;1.73;1.40;;;12.00;99.90;;;;;;5034083;28;20655;-71
2022/01/03 09:14:49;;;;;;;5.60;1.80;;;12.10;99.90;;;;;;5040417;28;20788;-71
2022/01/03 09:17:16;;;;;;;6.30;1.60;;;12.10;99.90;;;;;;5028054;28;20843;-71
2022/01/03 09:19:42;;;;;;;4.60;1.50;;;12.20;99.90;;;;;;5033382;28;20574;-71
2022/01/03 09:22:18;;;;;;;6.87;1.87;;;12.20;99.90;;;;;;5046333;28;21665;-70
2022/01/03 09:30:12;;;;;;;5.03;1.60;;;12.40;99.90;;;;;;5028107;28;20622;-70
2022/01/03 09:32:39;;;;;;;1.80;1.40;;;12.50;99.90;;;;;;5028020;28;20271;-70
2022/01/03 09:35:08;;;;;;;3.43;1.43;;;12.60;99.90;;;;;;5027911;28;20560;-70
2022/01/03 09:37:36;;;;;;;3.73;1.20;;;12.70;99.90;;;;;;5027286;28;20182;-70
2022/01/03 09:40:06;;;;;;;2.20;1.47;;;12.70;99.90;;;;;;5029156;28;20195;-71
2022/01/03 09:42:34;;;;;;;3.50;1.83;;;12.80;99.90;;;;;;5038989;28;20600;-70
2022/01/03 09:45:07;;;;;;;1.83;1.43;;;12.90;99.90;;;;;;5035095;28;20913;-71
2022/01/03 09:47:38;;;;;;;2.70;1.70;;;12.90;99.90;;;;;;5017351;28;20192;-70
2022/01/03 09:50:06;;;;;;;4.30;1.60;;;13.00;99.90;;;;;;5021394;28;20672;-70
2022/01/03 09:52:34;;;;;;;3.47;1.60;;;13.00;99.90;;;;;;5018380;28;20184;-71
2022/01/03 09:55:04;;;;;;;2.80;1.50;;;13.00;99.90;;;;;;5035541;28;20190;-70
2022/01/03 09:57:34;;;;;;;3.33;1.70;;;13.10;99.90;;;;;;5025895;28;20211;-71
2022/01/03 10:00:04;;;;;;;3.40;1.60;;;13.10;99.90;;;;;;5029758;28;20229;-71
2022/01/03 10:02:31;;;;;;;2.33;1.60;;;13.10;99.90;;;;;;5013622;28;20285;-70
2022/01/03 10:04:59;;;;;;;2.00;1.57;;;13.20;99.90;;;;;;5027696;28;20362;-71
2022/01/03 10:07:27;;;;;;;3.03;1.40;;;13.20;99.90;;;;;;5034999;28;20925;-71
2022/01/03 10:09:55;;;;;;;4.87;1.70;;;13.20;99.90;;;;;;5009871;28;20223;-71
2022/01/03 10:12:21;;;;;;;2.77;1.60;;;13.30;99.90;;;;;;5025597;28;20210;-71
2022/01/03 10:14:48;;;;;;;3.40;1.70;;;13.30;99.90;;;;;;5009009;28;20195;-71
2022/01/03 10:17:14;;;;;;;3.77;1.93;;;13.40;99.90;;;;;;5040749;28;20243;-71
2022/01/03 10:19:56;;;;;;;2.43;1.40;;;13.40;99.90;;;;;;5044046;28;20907;-71
2022/01/03 10:22:26;;;;;;;3.47;1.70;;;13.50;99.90;;;;;;5041417;28;20194;-71
2022/01/03 10:24:54;;;;;;;2.37;1.40;;;13.60;99.90;;;;;;5050307;28;20237;-71
2022/01/03 10:27:25;;;;;;;3.23;1.77;;;13.60;99.90;;;;;;5044508;28;20261;-71
2022/01/03 10:29:57;;;;;;;2.40;1.50;;;13.70;99.90;;;;;;5046296;28;20532;-71
2022/01/03 10:32:31;;;;;;;3.23;1.50;;;13.70;99.90;;;;;;5008448;28;20665;-70
2022/01/03 10:35:16;;;;;;;2.30;1.40;;;13.80;99.90;;;;;;5028681;28;20190;-71
2022/01/03 10:37:43;;;;;;;2.43;1.43;;;13.90;99.90;;;;;;5032458;28;20180;-71
2022/01/03 10:40:31;;;;;;;3.90;1.50;;;14.10;99.90;;;;;;5025832;28;20306;-71
2022/01/03 10:43:15;;;;;;;2.13;1.50;;;14.30;99.90;;;;;;5043200;28;20645;-71
2022/01/03 10:45:42;;;;;;;4.47;1.60;;;14.50;99.90;;;;;;5042525;28;20194;-71
2022/01/03 10:48:34;;;;;;;3.40;1.67;;;14.80;99.90;;;;;;5013403;28;20751;-71
2022/01/03 10:51:03;;;;;;;2.87;1.50;;;14.50;99.90;;;;;;5028707;28;20636;-71
2022/01/03 10:53:43;;;;;;;2.70;1.60;;;14.30;99.90;;;;;;5046877;28;20888;-71
2022/01/03 10:56:38;;;;;;;2.30;1.70;;;14.20;99.90;;;;;;5023049;28;20595;-71
2022/01/03 10:59:18;;;;;;;2.70;1.43;;;14.00;99.90;;;;;;5032523;28;20276;-71
2022/01/03 11:01:48;;;;;;;2.23;1.57;;;13.90;99.90;;;;;;5024789;28;20281;-71
2022/01/03 11:04:49;;;;;;;9.47;2.77;;;13.90;99.90;;;;;;5021923;28;20224;-71
2022/01/03 11:13:09;;;;;;;14.43;1.70;;;13.80;99.90;;;;;;5047075;28;20194;-71
2022/01/03 11:15:42;;;;;;;2.30;1.50;;;13.80;99.90;;;;;;5043810;28;20197;-71
2022/01/03 11:18:19;;;;;;;3.00;1.57;;;13.80;99.90;;;;;;5061134;28;20629;-71
2022/01/03 11:21:00;;;;;;;3.17;1.40;;;14.00;99.90;;;;;;5023803;28;20750;-70
2022/01/03 11:23:26;;;;;;;3.70;1.40;;;14.10;99.90;;;;;;5037384;28;20200;-71
2022/01/03 11:25:54;;;;;;;5.53;1.60;;;14.30;99.90;;;;;;5044369;28;20183;-70
2022/01/03 11:28:28;;;;;;;2.60;1.43;;;14.50;99.90;;;;;;5026820;28;20246;-71
2022/01/03 11:30:57;;;;;;;3.20;1.60;;;14.70;99.90;;;;;;5034525;28;20277;-71
2022/01/03 11:33:26;;;;;;;3.17;1.60;;;14.80;99.90;;;;;;5027869;28;20256;-71
2022/01/03 11:35:52;;;;;;;2.53;1.30;;;14.90;99.90;;;;;;5042566;28;20190;-71
2022/01/03 11:38:24;;;;;;;3.67;1.97;;;15.00;99.90;;;;;;5036385;28;20735;-71
2022/01/03 11:40:52;;;;;;;3.13;1.40;;;15.10;99.90;;;;;;5029224;28;20206;-71
2022/01/03 11:43:18;;;;;;;4.27;1.40;;;15.20;99.90;;;;;;5048441;28;20223;-70
2022/01/03 11:45:44;;;;;;;3.53;1.60;;;15.20;99.90;;;;;;5044111;28;20306;-73
2022/01/03 11:48:14;;;;;;;5.90;1.40;;;15.20;99.90;;;;;;5033751;28;20249;-71
2022/01/03 11:50:42;;;;;;;4.27;1.70;;;15.20;99.90;;;;;;5010694;28;20655;-71
2022/01/03 11:53:10;;;;;;;11.27;1.70;;;15.30;99.90;;;;;;5050613;28;20242;-72
2022/01/03 11:55:40;;;;;;;3.67;1.50;;;15.40;99.90;;;;;;5008771;28;20568;-71
2022/01/03 12:03:39;;;;;;;5.03;1.53;;;15.40;99.90;;;;;;5022642;28;20219;-71
2022/01/03 12:06:09;;;;;;;4.80;1.50;;;15.40;99.90;;;;;;5044535;28;20195;-70
2022/01/03 12:08:39;;;;;;;3.33;1.30;;;15.40;99.90;;;;;;5050587;28;20249;-72
2022/01/03 12:11:25;;;;;;;4.40;1.37;;;15.30;99.90;;;;;;5037954;28;20187;-71
2022/01/03 12:14:11;;;;;;;4.77;1.50;;;15.30;99.90;;;;;;5027734;28;20195;-73
2022/01/03 12:16:48;;;;;;;3.20;1.40;;;15.20;99.90;;;;;;5048777;28;20187;-70
2022/01/03 12:19:31;;;;;;;8.20;1.10;;;15.20;99.90;;;;;;5015431;28;20634;-71
2022/01/03 12:22:20;;;;;;;2.13;1.00;;;15.20;99.90;;;;;;5020829;28;20266;-71
2022/01/03 12:24:53;;;;;;;6.60;1.40;;;15.20;99.90;;;;;;5007400;28;20199;-72
2022/01/03 12:27:21;;;;;;;3.63;1.33;;;15.10;99.90;;;;;;5009404;28;20786;-70
2022/01/03 12:29:57;;;;;;;3.87;1.30;;;15.10;99.90;;;;;;5041434;28;20277;-71
2022/01/03 12:32:33;;;;;;;2.13;1.10;;;15.10;99.90;;;;;;5031463;28;20285;-72
2022/01/03 12:35:17;;;;;;;4.70;1.60;;;15.10;99.90;;;;;;5004617;28;20609;-70
2022/01/03 12:38:08;;;;;;;5.20;1.97;;;15.00;99.90;;;;;;5009505;28;20187;-71
2022/01/03 12:40:58;;;;;;;2.77;1.80;;;15.00;99.90;;;;;;5024528;28;20199;-73
2022/01/03 12:43:43;;;;;;;3.57;1.80;;;15.00;99.90;;;;;;5040021;28;20192;-70
2022/01/03 12:46:21;;;;;;;3.03;1.30;;;15.00;99.90;;;;;;5024898;28;20680;-72
2022/01/03 12:48:48;;;;;;;2.67;1.30;;;14.90;99.90;;;;;;5027846;28;20207;-71
2022/01/03 12:51:16;;;;;;;3.83;1.73;;;14.90;99.90;;;;;;5045123;28;20235;-71
2022/01/03 12:53:49;;;;;;;4.27;1.50;;;14.90;99.90;;;;;;5014075;28;20227;-70
2022/01/03 12:56:21;;;;;;;3.90;1.40;;;14.80;99.90;;;;;;5040636;28;20218;-72
2022/01/03 12:58:55;;;;;;;3.30;1.30;;;14.80;99.90;;;;;;5029164;28;20195;-72
2022/01/03 13:01:27;;;;;;;2.77;1.20;;;14.80;99.90;;;;;;5018295;28;20233;-71
2022/01/03 13:03:57;;;;;;;2.07;1.30;;;14.80;99.90;;;;;;5018027;28;21015;-72
2022/01/03 13:06:34;;;;;;;3.37;1.10;;;14.70;99.90;;;;;;5006915;28;20282;-71
2022/01/03 13:09:11;;;;;;;3.23;1.30;;;14.70;99.90;;;;;;5030574;28;20258;-71
2022/01/03 13:11:59;;;;;;;3.40;1.37;;;14.70;99.90;;;;;;5026876;28;20202;-71
2022/01/03 13:14:27;;;;;;;2.40;1.23;;;14.70;99.90;;;;;;5039858;28;20188;-71
2022/01/03 13:16:58;;;;;;;3.27;1.30;;;14.60;99.90;;;;;;5048885;28;20183;-71
2022/01/03 13:19:35;;;;;;;4.67;1.53;;;14.60;99.90;;;;;;5028778;28;20192;-71
2022/01/03 13:22:14;;;;;;;2.00;1.27;;;14.50;99.90;;;;;;5011863;28;20191;-71
2022/01/03 13:24:48;;;;;;;3.53;1.10;;;14.50;99.90;;;;;;5028318;28;20960;-73
2022/01/03 13:27:20;;;;;;;4.67;1.47;;;14.50;99.90;;;;;;5022450;28;20198;-71
2022/01/03 13:30:03;;;;;;;3.90;1.40;;;14.50;99.90;;;;;;5040816;28;20226;-71
2022/01/03 13:32:32;;;;;;;2.80;1.00;;;14.40;99.90;;;;;;5045196;28;20748;-71